Time;durP1;ratioP1;P1;durP2;ratioP2;P2;SDS_P1;SDS_P2;PMS_P1;PMS_P2;Temp;Humidity;BMP_temperature;BMP_pressure;BME280_temperature;BME280_humidity;BME280_pressure;Samples;Min_cycle;Max_cycle;Signal;HPM_P1;HPM_P2
2021/05/04 00:02:10;;;;;;;3.60;2.70;;;;;;;;;;3586834;40;20377;-70
2021/05/04 00:04:36;;;;;;;4.50;3.40;;;;;;;;;;3587272;40;20419;-69
2021/05/04 00:07:02;;;;;;;4.10;3.38;;;;;;;;;;3581448;40;20802;-69
2021/05/04 00:09:28;;;;;;;2.42;2.22;;;;;;;;;;3577971;40;20754;-69
2021/05/04 00:11:55;;;;;;;2.65;2.25;;;;;;;;;;3588365;40;20761;-69
2021/05/04 00:14:22;;;;;;;3.38;2.30;;;;;;;;;;3584978;40;20393;-69
2021/05/04 00:16:48;;;;;;;2.80;2.00;;;;;;;;;;3588978;40;20360;-69
2021/05/04 00:19:14;;;;;;;2.55;1.67;;;;;;;;;;3597073;40;20408;-69
2021/05/04 00:21:41;;;;;;;3.28;1.65;;;;;;;;;;3588423;40;20434;-69
2021/05/04 00:24:08;;;;;;;1.50;1.20;;;;;;;;;;3587317;40;20449;-68
2021/05/04 00:26:34;;;;;;;2.80;1.70;;;;;;;;;;3593814;40;20378;-69
2021/05/04 00:29:01;;;;;;;2.97;2.13;;;;;;;;;;3587043;40;20430;-70
2021/05/04 00:31:27;;;;;;;2.83;1.88;;;;;;;;;;3593820;40;20773;-69
2021/05/04 00:33:54;;;;;;;2.47;1.90;;;;;;;;;;3587157;40;20405;-69
2021/05/04 00:36:20;;;;;;;4.57;2.20;;;;;;;;;;3587515;40;20772;-69
2021/05/04 00:38:46;;;;;;;3.05;1.85;;;;;;;;;;3588012;40;20822;-69
2021/05/04 00:41:12;;;;;;;1.93;1.67;;;;;;;;;;3584704;40;20804;-69
2021/05/04 00:43:39;;;;;;;2.92;1.83;;;;;;;;;;3582314;40;20360;-70
2021/05/04 00:46:06;;;;;;;2.80;2.17;;;;;;;;;;3577304;40;20438;-69
2021/05/04 00:48:32;;;;;;;3.05;2.38;;;;;;;;;;3578287;40;20430;-69
2021/05/04 00:51:01;;;;;;;3.05;2.53;;;;;;;;;;3586688;40;20740;-69
2021/05/04 00:53:29;;;;;;;3.58;2.22;;;;;;;;;;3587824;40;20831;-69
2021/05/04 00:55:57;;;;;;;2.85;1.73;;;;;;;;;;3586870;40;20355;-68
2021/05/04 00:58:23;;;;;;;4.75;2.03;;;;;;;;;;3588040;40;20377;-69
2021/05/04 01:00:49;;;;;;;3.35;1.60;;;;;;;;;;3577621;40;20438;-69
2021/05/04 01:05:44;;;;;;;2.55;1.80;;;;;;;;;;3554809;40;20462;-68
2021/05/04 01:08:11;;;;;;;3.75;1.73;;;;;;;;;;3547315;40;20407;-68
2021/05/04 01:10:37;;;;;;;2.42;1.63;;;;;;;;;;3556668;40;20368;-68
2021/05/04 01:13:03;;;;;;;2.08;1.80;;;;;;;;;;3556804;40;20379;-68
2021/05/04 01:15:29;;;;;;;3.03;1.90;;;;;;;;;;3556100;40;20641;-68
2021/05/04 01:17:56;;;;;;;4.10;2.08;;;;;;;;;;3556373;40;20640;-68
2021/05/04 01:20:23;;;;;;;3.38;1.80;;;;;;;;;;3556356;40;20359;-68
2021/05/04 01:22:50;;;;;;;3.55;1.85;;;;;;;;;;3556313;40;20686;-68
2021/05/04 01:25:16;;;;;;;2.20;1.75;;;;;;;;;;3556763;40;20795;-68
2021/05/04 01:27:42;;;;;;;2.97;2.00;;;;;;;;;;3556208;40;20380;-68
2021/05/04 01:30:09;;;;;;;2.28;1.60;;;;;;;;;;3546961;40;20411;-68
2021/05/04 01:32:35;;;;;;;2.10;1.50;;;;;;;;;;3549486;40;20392;-68
2021/05/04 01:35:02;;;;;;;3.60;1.65;;;;;;;;;;3547139;40;20413;-67
2021/05/04 01:37:28;;;;;;;3.25;1.85;;;;;;;;;;3547207;40;20417;-68
2021/05/04 01:39:55;;;;;;;1.80;1.30;;;;;;;;;;3556394;40;20387;-69
2021/05/04 01:42:22;;;;;;;1.90;1.60;;;;;;;;;;3546774;40;20477;-68
2021/05/04 01:44:49;;;;;;;2.60;1.50;;;;;;;;;;3546895;40;20412;-67
2021/05/04 01:47:15;;;;;;;2.70;1.40;;;;;;;;;;3547178;40;20396;-67
2021/05/04 01:49:41;;;;;;;2.47;1.80;;;;;;;;;;3555941;40;20638;-68
2021/05/04 01:52:08;;;;;;;3.67;1.70;;;;;;;;;;3552314;40;20377;-67
2021/05/04 01:54:34;;;;;;;3.03;1.63;;;;;;;;;;3553914;40;20373;-68
2021/05/04 01:57:01;;;;;;;1.98;1.70;;;;;;;;;;3555937;40;20375;-68
2021/05/04 01:59:28;;;;;;;2.70;1.70;;;;;;;;;;3556404;40;20399;-68
2021/05/04 02:01:54;;;;;;;2.72;1.65;;;;;;;;;;3553332;40;20407;-68
2021/05/04 02:04:20;;;;;;;3.47;1.63;;;;;;;;;;3552015;40;20410;-68
2021/05/04 02:06:47;;;;;;;3.07;1.60;;;;;;;;;;3556106;40;20649;-68
2021/05/04 02:09:13;;;;;;;2.47;1.50;;;;;;;;;;3552793;40;20368;-71
2021/05/04 02:11:39;;;;;;;2.10;1.40;;;;;;;;;;3554281;40;20375;-71
2021/05/04 02:14:07;;;;;;;3.30;1.70;;;;;;;;;;3556477;40;20380;-71
2021/05/04 02:16:33;;;;;;;4.22;1.40;;;;;;;;;;3556420;40;20642;-70
2021/05/04 02:19:00;;;;;;;2.95;1.58;;;;;;;;;;3556578;40;20407;-70
2021/05/04 02:21:26;;;;;;;2.65;1.33;;;;;;;;;;3545075;40;20412;-70
2021/05/04 02:23:52;;;;;;;2.30;1.20;;;;;;;;;;3554551;40;20438;-71
2021/05/04 02:26:18;;;;;;;3.90;1.67;;;;;;;;;;3556699;40;20514;-71
2021/05/04 02:28:45;;;;;;;1.75;1.38;;;;;;;;;;3556272;40;20415;-70
2021/05/04 02:31:12;;;;;;;1.98;1.40;;;;;;;;;;3548018;40;20460;-71
2021/05/04 02:33:39;;;;;;;2.55;1.63;;;;;;;;;;3558079;40;20375;-70
2021/05/04 02:36:05;;;;;;;2.67;1.27;;;;;;;;;;3558237;40;20618;-68
2021/05/04 02:38:32;;;;;;;3.35;2.00;;;;;;;;;;3557685;40;20372;-68
2021/05/04 02:40:58;;;;;;;2.30;1.42;;;;;;;;;;3553572;40;20422;-68
2021/05/04 02:43:24;;;;;;;2.80;1.50;;;;;;;;;;3557834;40;20415;-68
2021/05/04 02:45:51;;;;;;;4.20;1.27;;;;;;;;;;3543365;40;20406;-68
2021/05/04 02:48:18;;;;;;;2.13;1.40;;;;;;;;;;3542400;40;20695;-68
2021/05/04 02:50:44;;;;;;;1.83;1.30;;;;;;;;;;3545562;40;20674;-68
2021/05/04 02:53:11;;;;;;;1.70;1.25;;;;;;;;;;3554959;40;20375;-68
2021/05/04 02:55:37;;;;;;;2.55;1.58;;;;;;;;;;3557377;40;20421;-67
2021/05/04 02:58:03;;;;;;;3.53;1.60;;;;;;;;;;3557557;40;20363;-68
2021/05/04 03:00:29;;;;;;;3.38;1.60;;;;;;;;;;3557267;40;20376;-67
2021/05/04 03:02:56;;;;;;;3.95;1.85;;;;;;;;;;3548215;40;20391;-68
2021/05/04 03:05:23;;;;;;;3.35;1.60;;;;;;;;;;3548477;40;20512;-68
2021/05/04 03:07:49;;;;;;;2.30;1.55;;;;;;;;;;3545623;40;20404;-68
2021/05/04 03:10:15;;;;;;;2.80;1.50;;;;;;;;;;3543350;40;20759;-68
2021/05/04 03:12:41;;;;;;;2.27;1.80;;;;;;;;;;3547285;40;20393;-68
2021/05/04 03:15:08;;;;;;;2.10;1.40;;;;;;;;;;3538078;40;20404;-68
2021/05/04 03:17:34;;;;;;;2.00;1.42;;;;;;;;;;3550967;40;20371;-67
2021/05/04 03:20:00;;;;;;;2.15;1.45;;;;;;;;;;3550527;40;20397;-68
2021/05/04 03:22:27;;;;;;;3.20;1.85;;;;;;;;;;3553330;40;20397;-68
2021/05/04 03:24:54;;;;;;;2.25;1.45;;;;;;;;;;3547562;40;20374;-68
2021/05/04 03:27:20;;;;;;;2.20;1.60;;;;;;;;;;3548708;40;20415;-68
2021/05/04 03:29:46;;;;;;;1.58;1.38;;;;;;;;;;3536600;40;20477;-68
2021/05/04 03:32:12;;;;;;;2.42;1.30;;;;;;;;;;3547546;40;20417;-68
2021/05/04 03:34:38;;;;;;;1.60;1.50;;;;;;;;;;3545179;40;20379;-68
2021/05/04 03:37:04;;;;;;;2.55;1.63;;;;;;;;;;3550641;40;20377;-68
2021/05/04 03:39:31;;;;;;;3.45;1.50;;;;;;;;;;3547247;40;20423;-68
2021/05/04 03:41:58;;;;;;;2.58;1.70;;;;;;;;;;3540305;40;20820;-67
2021/05/04 03:44:24;;;;;;;3.60;1.63;;;;;;;;;;3551844;40;20660;-68
2021/05/04 03:46:50;;;;;;;1.60;1.42;;;;;;;;;;3546339;40;20374;-67
2021/05/04 03:49:16;;;;;;;2.63;1.63;;;;;;;;;;3545510;40;20462;-67
2021/05/04 03:51:42;;;;;;;2.58;1.50;;;;;;;;;;3537900;40;20767;-67
2021/05/04 03:54:08;;;;;;;4.18;1.85;;;;;;;;;;3547156;40;20385;-68
2021/05/04 03:56:35;;;;;;;2.97;1.52;;;;;;;;;;3544396;40;20750;-68
2021/05/04 03:59:02;;;;;;;4.05;1.50;;;;;;;;;;3543131;40;20457;-68
2021/05/04 04:01:28;;;;;;;3.20;1.83;;;;;;;;;;3547382;40;20404;-68
2021/05/04 04:03:54;;;;;;;3.20;1.60;;;;;;;;;;3546956;40;20440;-68
2021/05/04 04:06:20;;;;;;;1.73;1.40;;;;;;;;;;3547371;40;20409;-68
2021/05/04 04:08:48;;;;;;;1.95;1.58;;;;;;;;;;3549853;40;20409;-68
2021/05/04 04:11:14;;;;;;;2.78;1.80;;;;;;;;;;3540498;40;20406;-68
2021/05/04 04:13:41;;;;;;;2.73;1.50;;;;;;;;;;3527991;40;20418;-68
2021/05/04 04:16:07;;;;;;;2.70;1.40;;;;;;;;;;3537958;40;20391;-68
2021/05/04 04:18:33;;;;;;;2.45;1.50;;;;;;;;;;3536720;40;20406;-68
2021/05/04 04:21:00;;;;;;;2.47;1.65;;;;;;;;;;3540954;40;20440;-68
2021/05/04 04:23:26;;;;;;;3.53;1.60;;;;;;;;;;3523082;40;20421;-67
2021/05/04 04:25:52;;;;;;;3.05;1.73;;;;;;;;;;3543536;40;20367;-68
2021/05/04 04:28:18;;;;;;;3.15;1.63;;;;;;;;;;3537402;40;20414;-68
2021/05/04 04:30:45;;;;;;;3.20;1.90;;;;;;;;;;3537318;40;20382;-68
2021/05/04 04:33:12;;;;;;;3.35;1.88;;;;;;;;;;3541635;40;20421;-68
2021/05/04 04:35:38;;;;;;;1.77;1.50;;;;;;;;;;3539420;40;20370;-68
2021/05/04 04:38:04;;;;;;;2.60;1.65;;;;;;;;;;3539980;40;20455;-68
2021/05/04 04:40:30;;;;;;;2.20;1.60;;;;;;;;;;3535775;40;20526;-67
2021/05/04 04:42:56;;;;;;;2.88;1.55;;;;;;;;;;3533236;40;20386;-68
2021/05/04 04:45:23;;;;;;;3.43;1.50;;;;;;;;;;3536980;40;20375;-68
2021/05/04 04:47:50;;;;;;;2.35;1.50;;;;;;;;;;3540966;40;20385;-68
2021/05/04 04:50:16;;;;;;;2.78;1.70;;;;;;;;;;3539755;40;20467;-67
2021/05/04 04:52:42;;;;;;;1.95;1.50;;;;;;;;;;3536825;40;20387;-68
2021/05/04 04:55:08;;;;;;;2.35;1.40;;;;;;;;;;3541456;40;20417;-68
2021/05/04 04:57:35;;;;;;;3.20;1.35;;;;;;;;;;3541772;40;20382;-68
2021/05/04 05:00:01;;;;;;;2.50;1.60;;;;;;;;;;3537063;40;20391;-68
2021/05/04 05:02:27;;;;;;;2.58;1.58;;;;;;;;;;3537320;40;20462;-68
2021/05/04 05:04:54;;;;;;;2.53;1.57;;;;;;;;;;3526375;40;20406;-68
2021/05/04 05:07:21;;;;;;;3.17;1.80;;;;;;;;;;3534312;40;20777;-68
2021/05/04 05:09:47;;;;;;;3.10;1.85;;;;;;;;;;3534478;40;20666;-68
2021/05/04 05:12:14;;;;;;;1.70;1.55;;;;;;;;;;3535399;40;20387;-68
2021/05/04 05:14:41;;;;;;;3.13;1.50;;;;;;;;;;3550788;40;20378;-67
2021/05/04 05:17:09;;;;;;;2.92;1.63;;;;;;;;;;3535368;40;20427;-68
2021/05/04 05:19:36;;;;;;;3.13;1.85;;;;;;;;;;3546651;40;20391;-67
2021/05/04 05:22:03;;;;;;;2.97;1.80;;;;;;;;;;3547979;40;20852;-68
2021/05/04 05:24:29;;;;;;;2.42;1.80;;;;;;;;;;3550273;40;20376;-68
2021/05/04 05:26:56;;;;;;;2.10;1.60;;;;;;;;;;3538714;40;20383;-68
2021/05/04 05:29:22;;;;;;;2.75;1.65;;;;;;;;;;3540792;40;20386;-69
2021/05/04 05:31:48;;;;;;;4.05;1.90;;;;;;;;;;3541169;40;20383;-68
2021/05/04 05:34:14;;;;;;;4.45;1.98;;;;;;;;;;3544347;40;20385;-68
2021/05/04 05:36:40;;;;;;;3.33;1.80;;;;;;;;;;3543398;40;20364;-68
2021/05/04 05:39:07;;;;;;;2.58;1.77;;;;;;;;;;3546385;40;20385;-68
2021/05/04 05:41:34;;;;;;;3.70;2.13;;;;;;;;;;3547123;40;20446;-68
2021/05/04 05:44:00;;;;;;;5.03;2.65;;;;;;;;;;3548968;40;20378;-69
2021/05/04 05:46:30;;;;;;;5.20;2.63;;;;;;;;;;3543992;40;20728;-69
2021/05/04 05:48:56;;;;;;;5.05;2.33;;;;;;;;;;3540198;40;20410;-69
2021/05/04 05:51:22;;;;;;;5.55;2.30;;;;;;;;;;3545185;40;20799;-69
2021/05/04 05:53:48;;;;;;;5.07;2.22;;;;;;;;;;3548981;40;20373;-69
2021/05/04 05:56:15;;;;;;;3.25;2.50;;;;;;;;;;3546632;40;20377;-69
2021/05/04 05:58:42;;;;;;;4.60;2.45;;;;;;;;;;3542477;40;20413;-69
2021/05/04 06:01:08;;;;;;;4.55;2.55;;;;;;;;;;3548637;40;20366;-69
2021/05/04 06:03:34;;;;;;;4.57;2.67;;;;;;;;;;3546355;40;20405;-69
2021/05/04 06:06:00;;;;;;;2.53;2.10;;;;;;;;;;3547447;40;20758;-69
2021/05/04 06:08:27;;;;;;;5.93;2.72;;;;;;;;;;3550302;40;20377;-69
2021/05/04 06:10:53;;;;;;;4.60;2.67;;;;;;;;;;3538237;40;20440;-69
2021/05/04 06:13:20;;;;;;;2.97;2.30;;;;;;;;;;3538656;40;20783;-68
2021/05/04 06:15:47;;;;;;;5.72;2.85;;;;;;;;;;3542135;40;20392;-69
2021/05/04 06:18:13;;;;;;;4.18;2.80;;;;;;;;;;3542883;40;20408;-69
2021/05/04 06:20:40;;;;;;;6.05;2.70;;;;;;;;;;3554668;40;20766;-68
2021/05/04 06:23:06;;;;;;;3.92;2.80;;;;;;;;;;3538679;40;20699;-68
2021/05/04 06:25:33;;;;;;;6.03;3.15;;;;;;;;;;3547574;40;20362;-68
2021/05/04 06:28:06;;;;;;;5.25;2.75;;;;;;;;;;3546385;40;20840;-69
2021/05/04 06:30:37;;;;;;;4.07;2.53;;;;;;;;;;3542937;40;20380;-69
2021/05/04 06:33:04;;;;;;;6.20;2.97;;;;;;;;;;3551595;40;20384;-69
2021/05/04 06:35:30;;;;;;;4.57;2.67;;;;;;;;;;3538296;40;20409;-69
2021/05/04 06:37:56;;;;;;;4.47;2.40;;;;;;;;;;3534564;40;20418;-69
2021/05/04 06:40:22;;;;;;;6.47;2.35;;;;;;;;;;3547506;40;20381;-69
2021/05/04 06:42:49;;;;;;;4.87;2.60;;;;;;;;;;3534306;40;20448;-69
2021/05/04 06:45:15;;;;;;;4.47;2.55;;;;;;;;;;3547508;40;20646;-68
2021/05/04 06:47:42;;;;;;;3.65;2.55;;;;;;;;;;3547536;40;20369;-68
2021/05/04 06:50:09;;;;;;;3.27;2.40;;;;;;;;;;3547702;40;20380;-69
2021/05/04 06:52:35;;;;;;;2.73;1.83;;;;;;;;;;3547397;40;20409;-69
2021/05/04 06:55:01;;;;;;;4.22;2.17;;;;;;;;;;3544795;40;20481;-69
2021/05/04 06:57:27;;;;;;;3.55;2.10;;;;;;;;;;3547493;40;20448;-69
2021/05/04 06:59:53;;;;;;;4.10;2.15;;;;;;;;;;3538130;40;20420;-68
2021/05/04 07:02:20;;;;;;;4.25;2.10;;;;;;;;;;3549830;40;20637;-68
2021/05/04 07:04:47;;;;;;;4.53;2.17;;;;;;;;;;3548820;40;20417;-68
2021/05/04 07:07:13;;;;;;;3.75;2.03;;;;;;;;;;3547493;40;20381;-69
2021/05/04 07:09:39;;;;;;;3.13;2.08;;;;;;;;;;3546791;40;20360;-69
2021/05/04 07:12:06;;;;;;;4.13;2.07;;;;;;;;;;3541866;40;20738;-69
2021/05/04 07:14:32;;;;;;;4.53;2.88;;;;;;;;;;3537374;40;20374;-69
2021/05/04 07:17:00;;;;;;;6.93;3.10;;;;;;;;;;3537322;40;20457;-69
2021/05/04 07:19:26;;;;;;;5.53;3.33;;;;;;;;;;3537786;40;20474;-69
2021/05/04 07:21:53;;;;;;;6.97;3.77;;;;;;;;;;3537686;40;20927;-69
2021/05/04 07:24:20;;;;;;;8.93;4.00;;;;;;;;;;3529257;40;20467;-69
2021/05/04 07:26:46;;;;;;;5.70;3.45;;;;;;;;;;3536583;40;20438;-69
2021/05/04 07:29:12;;;;;;;5.28;3.40;;;;;;;;;;3539725;40;20367;-68
2021/05/04 07:31:38;;;;;;;5.88;3.45;;;;;;;;;;3541689;40;20590;-69
2021/05/04 07:34:05;;;;;;;4.90;3.30;;;;;;;;;;3528486;40;20527;-69
2021/05/04 07:36:31;;;;;;;6.35;3.03;;;;;;;;;;3529191;40;20429;-69
2021/05/04 07:38:58;;;;;;;5.55;3.40;;;;;;;;;;3537729;40;20787;-68
2021/05/04 07:41:24;;;;;;;5.50;3.03;;;;;;;;;;3527865;40;20423;-68
2021/05/04 07:43:51;;;;;;;5.97;2.92;;;;;;;;;;3537062;40;20393;-69
2021/05/04 07:46:17;;;;;;;5.55;3.15;;;;;;;;;;3539837;40;20759;-69
2021/05/04 07:48:44;;;;;;;5.75;3.22;;;;;;;;;;3538104;40;20506;-69
2021/05/04 07:51:10;;;;;;;6.53;3.13;;;;;;;;;;3531973;40;20424;-69
2021/05/04 07:53:36;;;;;;;5.70;3.45;;;;;;;;;;3536472;40;20395;-69
2021/05/04 07:56:04;;;;;;;4.80;2.47;;;;;;;;;;3542419;40;20373;-69
2021/05/04 07:58:31;;;;;;;6.70;3.47;;;;;;;;;;3539412;40;20379;-69
2021/05/04 08:00:57;;;;;;;5.55;3.38;;;;;;;;;;3528497;40;20395;-68
2021/05/04 08:03:23;;;;;;;7.50;4.30;;;;;;;;;;3537570;40;20387;-68
2021/05/04 08:05:50;;;;;;;5.85;3.67;;;;;;;;;;3520177;40;20399;-69
2021/05/04 08:08:16;;;;;;;7.35;3.72;;;;;;;;;;3537285;40;20461;-69
2021/05/04 08:10:42;;;;;;;7.45;3.30;;;;;;;;;;3537329;40;20390;-68
2021/05/04 08:13:09;;;;;;;5.30;3.80;;;;;;;;;;3537366;40;20462;-69
2021/05/04 08:15:36;;;;;;;5.38;3.80;;;;;;;;;;3527994;40;20752;-69
2021/05/04 08:18:11;;;;;;;5.95;3.78;;;;;;;;;;3528435;40;20390;-69
2021/05/04 08:20:46;;;;;;;3.20;2.70;;;;;;;;;;3528201;40;20444;-68
2021/05/04 08:23:13;;;;;;;8.57;3.60;;;;;;;;;;3542786;40;20381;-68
2021/05/04 08:25:39;;;;;;;7.53;3.65;;;;;;;;;;3538048;40;20753;-68
2021/05/04 08:28:05;;;;;;;5.97;2.83;;;;;;;;;;3536211;40;20395;-69
2021/05/04 08:30:32;;;;;;;5.78;2.95;;;;;;;;;;3537380;40;20368;-68
2021/05/04 08:32:58;;;;;;;7.05;2.80;;;;;;;;;;3537340;40;20413;-68
2021/05/04 08:35:26;;;;;;;4.88;2.30;;;;;;;;;;3537216;40;20462;-69
2021/05/04 08:37:52;;;;;;;5.70;2.90;;;;;;;;;;3537317;40;20382;-68
2021/05/04 08:40:18;;;;;;;4.90;2.50;;;;;;;;;;3533339;40;20776;-68
2021/05/04 08:42:44;;;;;;;4.88;2.85;;;;;;;;;;3537408;40;20466;-68
2021/05/04 08:45:11;;;;;;;3.40;2.42;;;;;;;;;;3537012;40;20410;-69
2021/05/04 08:47:38;;;;;;;6.95;3.00;;;;;;;;;;3537432;40;20387;-69
2021/05/04 08:50:06;;;;;;;4.50;2.50;;;;;;;;;;3537086;40;20671;-68
2021/05/04 08:52:32;;;;;;;7.07;3.20;;;;;;;;;;3536270;40;20398;-68
2021/05/04 08:54:58;;;;;;;5.65;3.25;;;;;;;;;;3537159;40;20363;-68
2021/05/04 08:57:24;;;;;;;7.00;3.20;;;;;;;;;;3527997;40;20530;-68
2021/05/04 08:59:50;;;;;;;5.63;3.53;;;;;;;;;;3537313;40;20426;-69
2021/05/04 09:02:20;;;;;;;3.90;3.50;;;;;;;;;;3530018;40;20404;-68
2021/05/04 09:04:56;;;;;;;6.78;3.25;;;;;;;;;;3542345;40;20379;-68
2021/05/04 09:07:32;;;;;;;5.13;2.78;;;;;;;;;;3536890;40;20661;-69
2021/05/04 09:10:00;;;;;;;5.20;3.03;;;;;;;;;;3541928;40;20373;-69
2021/05/04 09:12:36;;;;;;;5.53;3.55;;;;;;;;;;3533020;40;20794;-68
2021/05/04 09:15:18;;;;;;;4.60;3.47;;;;;;;;;;3546952;40;20385;-68
2021/05/04 09:17:49;;;;;;;4.55;3.03;;;;;;;;;;3541158;40;20413;-68
2021/05/04 09:20:34;;;;;;;6.45;3.40;;;;;;;;;;3546815;40;20404;-69
2021/05/04 09:23:06;;;;;;;5.38;2.72;;;;;;;;;;3546840;40;20479;-68
2021/05/04 09:25:33;;;;;;;5.35;2.70;;;;;;;;;;3536206;40;20405;-68
2021/05/04 09:27:59;;;;;;;6.18;2.50;;;;;;;;;;3541635;40;20718;-68
2021/05/04 09:30:26;;;;;;;4.50;1.92;;;;;;;;;;3545551;40;20424;-68
2021/05/04 09:32:52;;;;;;;5.40;1.70;;;;;;;;;;3543865;40;20367;-69
2021/05/04 09:35:28;;;;;;;4.50;1.80;;;;;;;;;;3546755;40;20388;-69
2021/05/04 09:38:02;;;;;;;6.32;2.70;;;;;;;;;;3539703;40;20378;-69
2021/05/04 09:40:29;;;;;;;4.43;1.80;;;;;;;;;;3546670;40;20384;-69
2021/05/04 09:43:02;;;;;;;6.10;1.58;;;;;;;;;;3546510;40;20358;-69
2021/05/04 09:45:29;;;;;;;4.30;1.77;;;;;;;;;;3540049;40;20376;-68
2021/05/04 09:48:08;;;;;;;3.42;1.10;;;;;;;;;;3546669;40;20369;-69
2021/05/04 09:50:47;;;;;;;3.97;1.20;;;;;;;;;;3543394;40;20458;-68
2021/05/04 09:53:14;;;;;;;2.00;1.00;;;;;;;;;;3543773;40;20370;-69
2021/05/04 09:55:54;;;;;;;2.03;0.98;;;;;;;;;;3527865;40;20651;-69
2021/05/04 09:58:30;;;;;;;2.50;0.70;;;;;;;;;;3543703;40;20368;-68
2021/05/04 10:00:56;;;;;;;2.85;1.10;;;;;;;;;;3546665;40;20382;-69
2021/05/04 10:03:22;;;;;;;4.68;0.90;;;;;;;;;;3537351;40;20393;-69
2021/05/04 10:05:50;;;;;;;3.28;1.08;;;;;;;;;;3546839;40;20839;-68
2021/05/04 10:08:16;;;;;;;3.72;1.17;;;;;;;;;;3546527;40;20381;-69
2021/05/04 10:10:43;;;;;;;3.75;1.23;;;;;;;;;;3546407;40;20373;-69
2021/05/04 10:13:10;;;;;;;4.65;1.40;;;;;;;;;;3536415;40;20657;-69
2021/05/04 10:15:36;;;;;;;2.20;1.00;;;;;;;;;;3527120;40;20413;-68
2021/05/04 10:18:02;;;;;;;3.38;1.10;;;;;;;;;;3536441;40;20382;-68
2021/05/04 10:20:28;;;;;;;1.88;0.90;;;;;;;;;;3536326;40;20465;-68
2021/05/04 10:22:56;;;;;;;3.65;0.90;;;;;;;;;;3536726;40;20382;-69
2021/05/04 10:25:22;;;;;;;2.63;1.00;;;;;;;;;;3536838;40;20375;-68
2021/05/04 10:27:51;;;;;;;4.93;1.10;;;;;;;;;;3538086;40;20414;-68
2021/05/04 10:30:18;;;;;;;5.43;2.03;;;;;;;;;;3533312;40;20371;-68
2021/05/04 10:32:49;;;;;;;3.72;1.67;;;19.30;92.50;;;;;;3536403;40;20859;-68
2021/05/04 10:35:34;;;;;;;4.75;2.00;;;;;;;;;;3532874;40;20383;-69
2021/05/04 10:38:02;;;;;;;4.00;1.55;;;;;;;;;;3528792;40;20386;-68
2021/05/04 10:40:34;;;;;;;5.68;2.05;;;;;;;;;;3539193;40;20421;-69
2021/05/04 10:43:00;;;;;;;5.70;1.75;;;;;;;;;;3532316;40;20410;-69
2021/05/04 10:45:41;;;;;;;7.68;2.33;;;;;;;;;;3536110;40;20371;-69
2021/05/04 10:48:08;;;;;;;5.35;1.63;;;;;;;;;;3495438;41;20623;-68
2021/05/04 10:50:52;;;;;;;5.50;1.60;;;;;;;;;;3526292;40;20431;-69
2021/05/04 10:53:20;;;;;;;4.05;1.45;;;;;;;;;;3532797;40;20396;-68
2021/05/04 10:56:19;;;;;;;4.55;1.40;;;;;;;;;;3534487;40;20374;-68
2021/05/04 10:58:47;;;;;;;4.32;1.50;;;;;;;;;;3523379;40;20399;-68
2021/05/04 11:01:19;;;;;;;4.85;1.45;;;19.30;87.20;;;;;;3512212;40;20406;-68
2021/05/04 11:03:46;;;;;;;6.07;1.90;;;;;;;;;;3516422;40;20417;-69
2021/05/04 11:06:13;;;;;;;3.20;1.67;;;;;;;;;;3511517;40;20823;-69
2021/05/04 11:09:12;;;;;;;6.40;1.85;;;;;;;;;;3514730;40;20410;-69
2021/05/04 11:11:41;;;;;;;6.70;1.67;;;;;;;;;;3496785;40;20424;-68
2021/05/04 11:14:08;;;;;;;4.35;2.40;;;;;;;;;;3501613;41;20411;-69
2021/05/04 11:16:35;;;;;;;4.50;2.10;;;;;;;;;;3510462;40;20413;-69
2021/05/04 11:19:05;;;;;;;3.33;1.20;;;;;;;;;;3522745;40;20408;-69
2021/05/04 11:21:38;;;;;;;4.68;1.27;;;;;;;;;;3522664;40;20434;-69
2021/05/04 11:24:05;;;;;;;3.87;1.70;;;;;;;;;;3526543;40;20408;-69
2021/05/04 11:26:44;;;;;;;4.05;1.20;;;;;;;;;;3523125;40;20443;-69
2021/05/04 11:29:10;;;;;;;4.07;1.30;;;;;;;;;;3531765;40;20388;-69
2021/05/04 11:31:40;;;;;;;5.82;1.45;;;;;;;;;;3535224;40;20646;-69
2021/05/04 11:34:37;;;;;;;5.72;1.50;;;;;;;;;;3529997;40;20502;-69
2021/05/04 11:37:04;;;;;;;4.72;1.33;;;;;;;;;;3539948;40;20813;-69
2021/05/04 11:39:30;;;;;;;4.97;1.83;;;;;;;;;;3539588;40;20763;-69
2021/05/04 11:41:58;;;;;;;3.35;1.70;;;;;;;;;;3544814;40;20377;-69
2021/05/04 11:44:25;;;;;;;2.63;1.40;;;;;;;;;;3541498;40;20388;-69
2021/05/04 11:46:53;;;;;;;3.35;1.73;;;;;;;;;;3535023;40;20401;-69
2021/05/04 11:49:26;;;;;;;6.75;1.75;;;;;;;;;;3540517;40;20383;-69
2021/05/04 11:52:06;;;;;;;4.43;1.60;;;;;;;;;;3533272;40;20405;-69
2021/05/04 11:54:33;;;;;;;4.50;2.00;;;;;;;;;;3542480;40;20806;-69
2021/05/04 11:57:00;;;;;;;4.68;1.90;;;;;;;;;;3542303;40;20824;-69
2021/05/04 11:59:27;;;;;;;4.10;1.83;;;;;;;;;;3543323;40;20440;-69
2021/05/04 12:01:53;;;;;;;4.30;1.90;;;;;;;;;;3532973;40;20413;-69
2021/05/04 12:04:19;;;;;;;3.13;1.48;;;;;;;;;;3541414;40;20411;-69
2021/05/04 12:06:46;;;;;;;4.67;2.20;;;;;;;;;;3534173;40;20508;-69
2021/05/04 12:09:13;;;;;;;4.82;2.00;;;;;;;;;;3537741;40;20661;-70
2021/05/04 12:11:39;;;;;;;4.88;2.10;;;;;;;;;;3540837;40;20507;-70
2021/05/04 12:14:07;;;;;;;7.00;1.63;;;;;;;;;;3533221;40;20409;-69
2021/05/04 12:16:33;;;;;;;4.97;2.13;;;;;;;;;;3542717;40;20466;-69
2021/05/04 12:18:59;;;;;;;4.32;2.03;;;;;;;;;;3546644;40;20404;-69
2021/05/04 12:21:26;;;;;;;8.55;2.35;;;;;;;;;;3546832;40;20385;-69
2021/05/04 12:23:52;;;;;;;3.92;2.08;;;;;;;;;;3547459;40;20413;-69
2021/05/04 12:26:20;;;;;;;3.95;1.98;;;;;;;;;;3545502;40;20439;-69
2021/05/04 12:28:47;;;;;;;4.93;2.42;;;;;;;;;;3542277;40;20371;-69
2021/05/04 12:31:17;;;;;;;5.35;2.65;;;;;;;;;;3547195;40;20463;-69
2021/05/04 12:33:45;;;;;;;6.15;2.33;;;;;;;;;;3550331;40;20440;-69
2021/05/04 12:36:15;;;;;;;4.53;2.40;;;;;;;;;;3546920;40;20369;-69
2021/05/04 12:38:48;;;;;;;4.82;2.85;;;;;;;;;;3543478;40;20476;-69
2021/05/04 12:43:43;;;;;;;5.38;2.40;;;;;;;;;;3547743;40;20400;-69
2021/05/04 12:46:11;;;;;;;6.18;3.05;;;;;;;;;;3553030;40;20367;-69
2021/05/04 12:48:39;;;;;;;5.10;2.65;;;;;;;;;;3551452;40;20774;-69
2021/05/04 12:51:06;;;;;;;5.43;2.45;;;;;;;;;;3537881;40;20409;-69
2021/05/04 12:53:38;;;;;;;5.85;2.47;;;;;;;;;;3545737;40;20368;-69
2021/05/04 12:56:06;;;;;;;4.28;2.45;;;;;;;;;;3545027;40;20397;-69
2021/05/04 12:58:32;;;;;;;3.33;2.20;;;;;;;;;;3541903;40;20499;-69
2021/05/04 13:01:11;;;;;;;3.90;2.10;;;;;;;;;;3553198;40;20385;-70
2021/05/04 13:03:49;;;;;;;4.60;2.10;;;;;;;;;;3544440;40;20415;-69
2021/05/04 13:06:23;;;;;;;4.65;2.13;;;;;;;;;;3549303;40;20392;-69
2021/05/04 13:08:56;;;;;;;5.03;2.30;;;;;;;;;;3540424;40;20387;-69
2021/05/04 13:11:48;;;;;;;6.70;2.35;;;;;;;;;;3545946;40;20413;-69
2021/05/04 13:14:39;;;;;;;6.17;2.27;;;;;;;;;;3536033;40;20409;-69
2021/05/04 13:31:32;;;;;;;4.30;2.10;;;;;;;;;;3520356;40;20401;-69
2021/05/04 13:33:58;;;;;;;5.93;1.80;;;;;;;;;;3525452;40;20373;-69
2021/05/04 13:36:25;;;;;;;4.45;1.65;;;;;;;;;;3525420;40;20902;-70
2021/05/04 13:49:51;;;;;;;4.97;1.70;;;;;;;;;;3526393;40;20394;-69
2021/05/04 13:52:18;;;;;;;4.10;1.98;;;;;;;;;;3536725;40;20757;-69
2021/05/04 13:54:44;;;;;;;6.22;2.40;;;;;;;;;;3536918;40;20457;-69
2021/05/04 13:57:15;;;;;;;4.35;2.40;;;;;;;;;;3536490;40;20371;-69
2021/05/04 13:59:41;;;;;;;7.18;2.35;;;;;;;;;;3536738;40;20442;-69
2021/05/04 14:02:13;;;;;;;6.03;2.13;;;;;;;;;;3536513;40;20482;-69
2021/05/04 14:04:50;;;;;;;6.00;2.50;;;;;;;;;;3536645;40;20774;-69
2021/05/04 14:26:31;;;;;;;3.75;1.48;;;;;;;;;;3547251;40;20468;-69
2021/05/04 14:28:57;;;;;;;4.93;1.80;;;;;;;;;;3550555;40;20381;-69
2021/05/04 14:31:24;;;;;;;6.50;1.90;;;;;;;;;;3539056;40;20399;-69
2021/05/04 14:33:50;;;;;;;6.20;2.00;;;;;;;;;;3545328;40;20388;-69
2021/05/04 14:36:39;;;;;;;5.78;1.92;;;;;;;;;;3549024;40;20459;-70
2021/05/04 14:42:40;;;;;;;;;;;;;;;;;;;;;
2021/05/04 15:02:50;;;;;;;4.05;1.85;;;;;;;;;;3533104;40;20545;-70
2021/05/04 15:05:19;;;;;;;5.85;1.92;;;;;;;;;;3525731;40;20807;-69
2021/05/04 15:07:45;;;;;;;4.10;1.77;;;;;;;;;;3527239;40;20502;-69
2021/05/04 15:10:12;;;;;;;4.43;1.98;;;;;;;;;;3520988;40;20384;-69
2021/05/04 15:12:40;;;;;;;5.20;2.20;;;;;;;;;;3526428;40;20396;-69
2021/05/04 15:15:12;;;;;;;6.45;2.10;;;;;;;;;;3526158;40;20462;-69
2021/05/04 15:17:47;;;;;;;3.05;1.30;;;;;;;;;;3525920;40;20425;-70
2021/05/04 15:22:58;;;;;;;3.25;1.30;;;;;;;;;;3537688;40;20431;-69
2021/05/04 15:25:26;;;;;;;4.50;1.98;;;;;;;;;;3537528;40;20405;-70
2021/05/04 15:27:53;;;;;;;2.67;1.30;;;;;;;;;;3543911;40;20383;-70
2021/05/04 15:30:20;;;;;;;2.95;1.27;;;;;;;;;;3537524;40;20438;-69
2021/05/04 15:35:27;;;;;;;7.18;2.10;;;;;;;;;;3531147;40;20379;-69
2021/05/04 15:37:53;;;;;;;4.63;2.17;;;;;;;;;;3547146;40;20365;-70
2021/05/04 15:40:20;;;;;;;5.45;1.70;;;;;;;;;;3547287;40;20374;-69
2021/05/04 15:42:46;;;;;;;11.43;4.90;;;;;;;;;;3547465;40;20380;-69
2021/05/04 15:45:13;;;;;;;7.65;3.25;;;;;;;;;;3547497;40;20362;-70
2021/05/04 15:47:47;;;;;;;5.20;1.83;;;;;;;;;;3543524;40;20810;-69
2021/05/04 15:53:27;;;;;;;20.13;12.57;;;;;;;;;;3546452;40;20771;-69
2021/05/04 16:06:57;;;;;;;3.55;1.60;;;;;;;;;;3544309;40;20381;-70
2021/05/04 16:09:27;;;;;;;5.57;2.15;;;;;;;;;;3537772;40;20372;-69
2021/05/04 16:11:53;;;;;;;4.03;1.40;;;;;;;;;;3546822;40;20371;-70
2021/05/04 16:14:19;;;;;;;2.55;1.45;;;;;;;;;;3543514;40;20415;-70
2021/05/04 16:16:47;;;;;;;4.68;1.50;;;;;;;;;;3538641;40;20424;-69
2021/05/04 16:19:58;;;;;;;5.27;1.47;;;;;;;;;;3540988;40;20373;-69